createdAt,value
2023-02-08T00:01:15.869Z,-1.10
2023-02-08T00:03:45.935Z,-1.20
2023-02-08T00:06:13.033Z,-1.20
2023-02-08T00:08:42.270Z,-1.20
2023-02-08T00:13:44.325Z,-1.20
2023-02-08T00:16:13.787Z,-1.30
2023-02-08T00:23:39.019Z,-1.30
2023-02-08T00:26:06.037Z,-1.30
2023-02-08T00:28:32.917Z,-1.30
2023-02-08T00:31:02.035Z,-1.40
2023-02-08T00:33:31.274Z,-1.40
2023-02-08T00:36:02.468Z,-1.70
2023-02-08T00:38:31.858Z,-1.50
2023-02-08T00:40:58.611Z,-1.50
2023-02-08T00:43:25.326Z,-1.50
2023-02-08T00:45:56.422Z,-1.50
2023-02-08T00:48:26.192Z,-1.50
2023-02-08T00:51:03.212Z,-1.50
2023-02-08T00:53:29.978Z,-1.50
2023-02-08T00:55:57.100Z,-1.60
2023-02-08T00:58:24.189Z,-1.50
2023-02-08T01:00:52.952Z,-1.60
2023-02-08T01:03:24.192Z,-1.60
2023-02-08T01:05:53.582Z,-0.30
2023-02-08T01:08:21.273Z,-1.70
2023-02-08T01:10:47.948Z,-1.70
2023-02-08T01:13:17.169Z,-1.70
2023-02-08T01:15:43.998Z,-1.70
2023-02-08T01:18:12.910Z,-1.70
2023-02-08T01:20:39.845Z,-1.70
2023-02-08T01:23:06.653Z,-1.80
2023-02-08T01:25:35.715Z,-2.00
2023-02-08T01:28:02.426Z,-1.80
2023-02-08T01:37:55.154Z,-1.90
2023-02-08T01:40:24.002Z,-1.90
2023-02-08T01:42:52.944Z,-1.90
2023-02-08T01:45:26.145Z,-2.00
2023-02-08T01:50:30.916Z,-1.80
2023-02-08T01:52:58.201Z,-1.90
2023-02-08T01:55:33.651Z,-1.90
2023-02-08T01:58:03.637Z,-2.00
2023-02-08T02:00:32.097Z,-2.10
2023-02-08T02:03:00.507Z,-2.10
2023-02-08T02:05:38.060Z,-2.10
2023-02-08T02:10:34.044Z,-2.10
2023-02-08T02:13:14.386Z,-2.10
2023-02-08T02:15:45.358Z,-2.10
2023-02-08T02:18:16.207Z,-2.20
2023-02-08T02:26:29.921Z,-2.40
2023-02-08T02:31:57.618Z,-2.10
2023-02-08T02:34:55.489Z,-2.20
2023-02-08T02:37:53.196Z,-2.30
2023-02-08T02:40:44.870Z,-2.40
2023-02-08T02:43:41.864Z,-2.30
2023-02-08T02:46:30.683Z,-2.30
2023-02-08T02:49:17.832Z,-2.40
2023-02-08T02:51:58.226Z,-2.40
2023-02-08T02:54:27.500Z,-2.40
2023-02-08T03:15:11.743Z,-2.60
2023-02-08T03:28:21.769Z,-2.50
2023-02-08T03:37:00.094Z,-2.50
2023-02-08T03:39:30.321Z,-2.70
2023-02-08T03:42:01.441Z,-2.70
2023-02-08T03:57:23.994Z,-2.80
2023-02-08T04:00:01.990Z,-2.80
2023-02-08T04:02:33.086Z,-2.80
2023-02-08T04:05:05.675Z,-2.80
2023-02-08T04:07:32.473Z,-2.80
2023-02-08T04:09:59.208Z,-2.90
2023-02-08T04:12:25.884Z,-2.90
2023-02-08T04:14:52.592Z,-2.90
2023-02-08T04:17:19.278Z,-2.80
2023-02-08T04:19:48.096Z,-2.90
2023-02-08T04:27:13.846Z,-2.90
2023-02-08T04:32:13.387Z,-2.90
2023-02-08T04:34:40.269Z,-3.00
2023-02-08T04:37:11.018Z,-3.00
2023-02-08T04:39:38.138Z,-3.00
2023-02-08T04:42:04.828Z,-3.00
2023-02-08T04:44:33.749Z,-3.00
2023-02-08T04:47:00.916Z,-3.10
2023-02-08T04:49:27.700Z,-3.00
2023-02-08T04:51:54.436Z,-3.10
2023-02-08T04:54:21.481Z,-3.20
2023-02-08T04:56:50.457Z,-3.20
2023-02-08T04:59:17.102Z,-3.20
2023-02-08T05:01:43.875Z,-3.20
2023-02-08T05:04:12.764Z,-3.20
2023-02-08T05:06:41.626Z,-3.20
2023-02-08T05:09:09.655Z,-3.20
2023-02-08T05:14:04.920Z,-3.20
2023-02-08T05:16:31.701Z,-3.30
2023-02-08T05:18:58.740Z,-3.30
2023-02-08T05:21:27.680Z,-3.20
2023-02-08T05:28:54.288Z,-3.20
2023-02-08T05:31:24.131Z,-3.30
2023-02-08T05:33:52.604Z,-3.30
2023-02-08T05:38:49.773Z,-3.30
2023-02-08T05:41:19.738Z,-3.30
2023-02-08T05:43:46.404Z,-3.40
2023-02-08T05:46:13.365Z,-3.40
2023-02-08T05:48:40.337Z,-3.40
2023-02-08T05:51:09.508Z,-3.40
2023-02-08T05:53:36.874Z,-3.40
2023-02-08T05:56:04.505Z,-3.20
2023-02-08T06:05:53.147Z,-3.70
2023-02-08T06:08:22.311Z,-3.40
2023-02-08T06:10:51.653Z,-3.50
2023-02-08T06:13:18.302Z,-3.50
2023-02-08T06:15:47.438Z,-3.60
2023-02-08T06:18:16.892Z,-3.60
2023-02-08T06:23:13.001Z,-3.60
2023-02-08T06:25:39.642Z,-3.60
2023-02-08T06:28:06.942Z,-3.60
2023-02-08T06:40:22.503Z,-4.10
2023-02-08T06:42:50.402Z,-2.70
2023-02-08T06:45:19.535Z,-2.60
2023-02-08T06:47:46.241Z,-2.80
2023-02-08T06:50:14.680Z,-3.00
2023-02-08T06:52:41.391Z,-3.20
2023-02-08T06:55:08.229Z,-3.30
2023-02-08T06:57:34.878Z,-3.50
2023-02-08T07:00:03.705Z,-3.60
2023-02-08T07:02:30.960Z,-3.50
2023-02-08T07:04:57.664Z,-3.60
2023-02-08T07:07:26.487Z,-3.80
2023-02-08T07:09:55.458Z,-3.60
2023-02-08T07:12:24.452Z,-3.60
2023-02-08T07:14:51.116Z,-3.50
2023-02-08T07:17:17.777Z,-3.60
2023-02-08T07:19:46.706Z,-3.70
2023-02-08T07:22:15.604Z,-3.60
2023-02-08T07:24:42.970Z,-3.60
2023-02-08T07:27:15.686Z,-3.60
2023-02-08T07:32:13.446Z,-3.50
2023-02-08T07:34:42.690Z,-3.60
2023-02-08T07:37:09.389Z,-3.50
2023-02-08T07:39:36.097Z,-3.50
2023-02-08T07:42:07.839Z,-3.60
2023-02-08T07:44:34.691Z,-3.30
2023-02-08T07:47:01.996Z,-3.30
2023-02-08T07:49:28.765Z,-3.20
2023-02-08T07:51:55.458Z,-3.20
2023-02-08T07:54:22.257Z,-3.00
2023-02-08T07:56:48.904Z,-2.80
2023-02-08T07:59:15.606Z,-3.00
2023-02-08T08:01:46.818Z,-2.90
2023-02-08T08:04:13.633Z,-2.70
2023-02-08T08:06:42.581Z,-2.60
2023-02-08T08:09:09.369Z,-2.50
2023-02-08T08:11:36.030Z,-2.30
2023-02-08T08:14:02.737Z,-2.10
2023-02-08T08:16:29.533Z,-2.10
2023-02-08T08:18:56.280Z,-1.90
2023-02-08T08:21:22.992Z,-1.70
2023-02-08T08:23:49.777Z,-1.70
2023-02-08T08:26:20.955Z,-1.00
2023-02-08T08:28:50.862Z,-1.30
2023-02-08T08:31:20.363Z,-1.00
2023-02-08T08:33:47.763Z,-0.70
2023-02-08T08:36:14.784Z,-0.50
2023-02-08T08:38:41.785Z,-0.30
2023-02-08T08:41:10.712Z,-0.20
2023-02-08T08:43:41.880Z,-0.60
2023-02-08T08:46:09.413Z,0.20
2023-02-08T08:48:38.228Z,0.30
2023-02-08T08:51:06.186Z,0.50
2023-02-08T08:53:36.919Z,0.70
2023-02-08T08:56:04.675Z,0.90
2023-02-08T08:58:31.349Z,0.90
2023-02-08T09:01:03.661Z,1.20
2023-02-08T09:03:30.787Z,1.40
2023-02-08T09:05:57.670Z,1.30
2023-02-08T09:08:26.833Z,1.60
2023-02-08T09:10:53.649Z,1.80
2023-02-08T09:13:23.048Z,1.90
2023-02-08T09:15:52.297Z,2.00
2023-02-08T09:18:19.012Z,2.20
2023-02-08T09:20:48.149Z,2.30
2023-02-08T09:23:17.249Z,2.40
2023-02-08T09:25:50.071Z,2.50
2023-02-08T09:28:19.277Z,2.60
2023-02-08T09:30:48.277Z,2.70
2023-02-08T09:33:15.002Z,2.90
2023-02-08T09:35:41.959Z,3.40
2023-02-08T09:38:08.772Z,3.60
2023-02-08T09:41:06.521Z,3.60
2023-02-08T09:44:00.104Z,3.80
2023-02-08T09:46:29.832Z,3.80
2023-02-08T09:49:04.251Z,3.70
2023-02-08T09:51:58.771Z,4.00
2023-02-08T09:54:45.554Z,4.00
2023-02-08T09:57:20.137Z,4.10
2023-02-08T09:59:57.081Z,4.00
2023-02-08T10:02:28.774Z,3.90
2023-02-08T10:05:03.039Z,4.00
2023-02-08T10:07:30.830Z,4.10
2023-02-08T10:10:01.811Z,4.30
2023-02-08T10:12:45.449Z,4.20
2023-02-08T10:15:47.476Z,4.40
2023-02-08T10:18:29.413Z,4.50
2023-02-08T10:21:17.354Z,4.60
2023-02-08T10:24:04.874Z,4.70
2023-02-08T10:26:50.986Z,4.80
2023-02-08T10:29:53.863Z,4.80
2023-02-08T10:32:38.484Z,4.70
2023-02-08T10:35:11.462Z,4.70
2023-02-08T10:37:44.258Z,4.80
2023-02-08T10:40:38.215Z,4.70
2023-02-08T10:43:15.680Z,4.80
2023-02-08T10:45:54.585Z,4.80
2023-02-08T10:48:48.402Z,4.80
2023-02-08T10:51:21.745Z,4.80
2023-02-08T10:53:48.860Z,4.80
2023-02-08T10:56:28.336Z,5.10
2023-02-08T10:58:57.704Z,5.10
2023-02-08T11:01:26.029Z,5.10
2023-02-08T11:04:11.376Z,5.10
2023-02-08T11:06:39.431Z,4.90
2023-02-08T11:09:19.979Z,5.70
2023-02-08T11:11:46.813Z,5.00
2023-02-08T11:14:19.071Z,5.00
2023-02-08T11:16:59.167Z,5.40
2023-02-08T11:19:35.388Z,5.10
2023-02-08T11:22:05.895Z,5.10
2023-02-08T11:24:43.431Z,5.20
2023-02-08T11:27:31.253Z,5.20
2023-02-08T11:30:16.025Z,5.20
2023-02-08T11:32:47.393Z,5.40
2023-02-08T11:35:21.977Z,5.30
2023-02-08T11:37:51.063Z,5.70
2023-02-08T11:40:29.263Z,5.40
2023-02-08T11:42:58.644Z,5.50
2023-02-08T11:45:30.044Z,5.80
2023-02-08T11:47:57.785Z,5.70
2023-02-08T11:50:31.526Z,5.60
2023-02-08T11:53:04.248Z,5.70
2023-02-08T11:55:34.122Z,5.80
2023-02-08T11:58:06.518Z,6.10
2023-02-08T12:00:35.729Z,5.80
2023-02-08T12:03:23.823Z,6.00
2023-02-08T12:06:19.761Z,5.90
2023-02-08T12:09:04.290Z,5.80
2023-02-08T12:11:46.417Z,5.90
2023-02-08T12:14:37.302Z,5.90
2023-02-08T12:17:24.506Z,5.90
2023-02-08T12:20:23.169Z,6.10
2023-02-08T12:23:20.190Z,6.20
2023-02-08T12:26:16.208Z,6.20
2023-02-08T12:28:46.097Z,6.30
2023-02-08T12:31:31.020Z,6.40
2023-02-08T12:34:19.049Z,6.40
2023-02-08T12:37:31.714Z,6.40
2023-02-08T12:40:42.375Z,6.60
2023-02-08T12:43:30.431Z,6.50
2023-02-08T12:46:06.011Z,6.50
2023-02-08T12:49:07.872Z,6.50
2023-02-08T12:51:43.588Z,6.50
2023-02-08T12:54:18.884Z,6.40
2023-02-08T12:57:01.327Z,6.40
2023-02-08T12:59:41.449Z,6.40
2023-02-08T13:02:29.696Z,6.50
2023-02-08T13:05:00.191Z,6.50
2023-02-08T13:07:38.472Z,6.70
2023-02-08T13:10:27.806Z,6.50
2023-02-08T13:13:01.714Z,6.50
2023-02-08T13:15:42.240Z,6.40
2023-02-08T13:18:18.593Z,6.40
2023-02-08T13:20:53.563Z,6.40
2023-02-08T13:23:27.928Z,6.60
2023-02-08T13:26:04.266Z,6.40
2023-02-08T13:28:31.058Z,6.30
2023-02-08T13:31:14.346Z,6.30
2023-02-08T13:34:00.792Z,6.30
2023-02-08T13:36:39.834Z,6.10
2023-02-08T13:39:26.770Z,6.10
2023-02-08T13:41:56.344Z,6.50
2023-02-08T13:44:33.909Z,6.60
2023-02-08T13:47:01.081Z,6.20
2023-02-08T13:50:14.864Z,6.00
2023-02-08T13:52:50.243Z,5.90
2023-02-08T13:55:30.539Z,5.80
2023-02-08T13:58:02.527Z,5.80
2023-02-08T14:00:37.949Z,5.70
2023-02-08T14:03:24.674Z,5.60
2023-02-08T14:06:15.031Z,5.50
2023-02-08T14:09:03.584Z,5.40
2023-02-08T14:11:48.660Z,5.30
2023-02-08T14:14:29.270Z,5.30
2023-02-08T14:17:05.163Z,5.10
2023-02-08T14:19:33.983Z,5.10
2023-02-08T14:22:17.815Z,5.20
2023-02-08T14:24:58.786Z,5.00
2023-02-08T14:27:30.143Z,4.90
2023-02-08T14:30:02.916Z,5.00
2023-02-08T14:32:33.606Z,4.90
2023-02-08T14:35:14.974Z,4.90
2023-02-08T14:37:45.937Z,4.90
2023-02-08T14:40:24.358Z,5.10
2023-02-08T14:43:04.604Z,4.90
2023-02-08T14:45:34.996Z,4.70
2023-02-08T14:48:32.809Z,4.60
2023-02-08T14:51:11.406Z,4.60
2023-02-08T14:53:55.081Z,4.50
2023-02-08T14:56:28.052Z,4.50
2023-02-08T14:59:13.516Z,4.50
2023-02-08T15:01:44.646Z,4.40
2023-02-08T15:04:14.599Z,4.30
2023-02-08T15:06:50.217Z,5.00
2023-02-08T15:09:19.981Z,4.30
2023-02-08T15:12:00.160Z,4.30
2023-02-08T15:14:30.062Z,4.20
2023-02-08T15:16:57.447Z,4.30
2023-02-08T15:19:38.482Z,4.10
2023-02-08T15:22:24.898Z,4.20
2023-02-08T15:25:01.496Z,4.10
2023-02-08T15:27:32.156Z,4.10
2023-02-08T15:29:59.162Z,4.50
2023-02-08T15:32:29.704Z,3.60
2023-02-08T15:35:01.892Z,4.00
2023-02-08T15:37:35.427Z,3.80
2023-02-08T15:40:06.916Z,3.90
2023-02-08T15:42:34.164Z,3.80
2023-02-08T15:45:02.735Z,3.90
2023-02-08T15:47:35.978Z,3.80
2023-02-08T15:50:07.643Z,3.90
2023-02-08T15:52:36.591Z,3.70
2023-02-08T15:57:35.547Z,3.60
2023-02-08T16:00:12.484Z,3.50
2023-02-08T16:02:43.308Z,3.60
2023-02-08T16:05:30.561Z,3.50
2023-02-08T16:08:03.935Z,3.50
2023-02-08T16:10:42.778Z,3.30
2023-02-08T16:13:24.591Z,3.20
2023-02-08T16:16:07.191Z,3.40
2023-02-08T16:18:47.776Z,3.30
2023-02-08T16:21:42.526Z,3.30
2023-02-08T16:24:12.123Z,3.40
2023-02-08T16:27:02.905Z,3.30
2023-02-08T16:29:39.197Z,3.30
2023-02-08T16:32:22.483Z,3.40
2023-02-08T16:34:49.254Z,3.30
2023-02-08T16:37:35.455Z,3.20
2023-02-08T16:40:21.707Z,2.90
2023-02-08T16:42:48.434Z,3.10
2023-02-08T16:45:17.868Z,3.00
2023-02-08T16:47:54.206Z,3.20
2023-02-08T16:50:27.045Z,3.20
2023-02-08T16:52:56.243Z,3.10
2023-02-08T16:55:26.586Z,3.10
2023-02-08T16:57:55.865Z,3.10
2023-02-08T17:00:22.616Z,3.00
2023-02-08T17:02:49.637Z,2.90
2023-02-08T17:05:17.182Z,3.30
2023-02-08T17:07:43.996Z,2.80
2023-02-08T17:10:31.420Z,2.80
2023-02-08T17:13:18.339Z,2.80
2023-02-08T17:15:47.824Z,3.20
2023-02-08T17:18:14.740Z,2.80
2023-02-08T17:20:47.168Z,3.10
2023-02-08T17:23:16.479Z,2.60
2023-02-08T17:25:46.130Z,2.50
2023-02-08T17:28:20.002Z,2.40
2023-02-08T17:30:48.571Z,2.30
2023-02-08T17:33:18.835Z,2.40
2023-02-08T17:35:54.755Z,2.50
2023-02-08T17:38:24.530Z,2.30
2023-02-08T17:40:53.823Z,2.10
2023-02-08T17:43:20.591Z,2.20
2023-02-08T17:45:49.720Z,2.20
2023-02-08T17:48:16.607Z,2.50
2023-02-08T17:50:47.707Z,2.10
2023-02-08T17:53:15.191Z,2.20
2023-02-08T17:55:43.507Z,2.10
2023-02-08T17:58:13.614Z,2.00
2023-02-08T18:00:42.792Z,2.70
2023-02-08T18:03:10.801Z,1.90
2023-02-08T18:05:40.468Z,1.90
2023-02-08T18:08:08.675Z,1.90
2023-02-08T18:10:35.429Z,1.90
2023-02-08T18:13:05.674Z,1.90
2023-02-08T18:15:32.401Z,1.70
2023-02-08T18:17:59.093Z,1.60
2023-02-08T18:20:28.327Z,1.80
2023-02-08T18:22:54.990Z,2.10
2023-02-08T18:25:22.655Z,1.70
2023-02-08T18:27:50.112Z,1.70
2023-02-08T18:30:20.219Z,1.60
2023-02-08T18:32:49.408Z,2.50
2023-02-08T18:35:16.091Z,1.60
2023-02-08T18:37:49.430Z,1.70
2023-02-08T18:40:18.994Z,1.50
2023-02-08T18:42:49.549Z,1.80
2023-02-08T18:45:17.376Z,1.40
2023-02-08T18:47:48.791Z,1.50
2023-02-08T18:50:15.543Z,1.40
2023-02-08T18:52:42.253Z,1.40
2023-02-08T18:55:11.313Z,1.40
2023-02-08T18:57:39.898Z,1.40
2023-02-08T19:00:09.666Z,1.40
2023-02-08T19:02:39.706Z,1.30
2023-02-08T19:05:06.838Z,1.30
2023-02-08T19:07:37.504Z,1.20
2023-02-08T19:10:10.229Z,1.10
2023-02-08T19:12:37.424Z,1.20
2023-02-08T19:15:04.692Z,1.10
2023-02-08T19:17:32.713Z,1.10
2023-02-08T19:20:01.663Z,1.00
2023-02-08T19:22:28.361Z,1.00
2023-02-08T19:24:55.010Z,1.00
2023-02-08T19:27:26.265Z,1.00
2023-02-08T19:29:56.207Z,0.90
2023-02-08T19:32:28.681Z,0.80
2023-02-08T19:34:55.414Z,0.90
2023-02-08T19:37:28.982Z,1.80
2023-02-08T19:39:55.686Z,0.80
2023-02-08T19:42:23.525Z,0.90
2023-02-08T19:44:50.210Z,0.90
2023-02-08T19:47:19.254Z,1.00
2023-02-08T19:49:46.012Z,0.70
2023-02-08T19:52:13.179Z,0.70
2023-02-08T19:54:39.861Z,0.70
2023-02-08T19:57:06.506Z,0.60
2023-02-08T19:59:35.539Z,0.60
2023-02-08T20:02:02.458Z,0.60
2023-02-08T20:04:32.303Z,0.60
2023-02-08T20:07:01.110Z,0.60
2023-02-08T20:09:27.798Z,0.50
2023-02-08T20:11:57.869Z,0.50
2023-02-08T20:14:26.073Z,0.50
2023-02-08T20:16:55.262Z,0.50
2023-02-08T20:19:22.038Z,0.40
2023-02-08T20:21:49.027Z,0.40
2023-02-08T20:24:16.169Z,0.40
2023-02-08T20:26:45.553Z,0.40
2023-02-08T20:29:15.680Z,0.30
2023-02-08T20:31:47.559Z,0.30
2023-02-08T20:34:21.194Z,0.30
2023-02-08T20:37:06.883Z,0.30
2023-02-08T20:39:36.254Z,0.20
2023-02-08T20:42:03.756Z,0.20
2023-02-08T20:44:31.513Z,0.20
2023-02-08T20:46:58.270Z,0.10
2023-02-08T20:49:26.485Z,0.00
2023-02-08T20:51:54.650Z,0.00
2023-02-08T20:54:24.313Z,0.00
2023-02-08T20:56:51.714Z,0.00
2023-02-08T20:59:18.572Z,0.00
2023-02-08T21:01:46.473Z,0.00
2023-02-08T21:04:13.612Z,-0.10
2023-02-08T21:06:44.316Z,-0.10
2023-02-08T21:09:18.435Z,0.10
2023-02-08T21:11:45.662Z,-0.20
2023-02-08T21:14:19.071Z,-0.20
2023-02-08T21:16:55.979Z,-0.20
2023-02-08T21:19:23.541Z,-0.20
2023-02-08T21:21:54.314Z,-0.20
2023-02-08T21:24:21.238Z,-0.20
2023-02-08T21:26:47.875Z,-0.30
2023-02-08T21:29:14.554Z,-0.30
2023-02-08T21:31:41.346Z,-0.40
2023-02-08T21:34:11.228Z,-0.40
2023-02-08T21:36:40.367Z,-0.50
2023-02-08T21:39:07.196Z,-0.40
2023-02-08T21:41:34.440Z,-0.10
2023-02-08T21:44:04.253Z,-0.50
2023-02-08T21:46:32.031Z,-0.50
2023-02-08T21:49:20.268Z,-0.50
2023-02-08T21:52:05.619Z,-0.60
2023-02-08T21:54:43.953Z,-0.50
2023-02-08T21:57:30.233Z,-0.60
2023-02-08T21:59:58.983Z,-0.60
2023-02-08T22:02:28.579Z,-0.70
2023-02-08T22:04:57.248Z,-0.60
2023-02-08T22:07:25.107Z,-0.70
2023-02-08T22:09:51.989Z,-0.70
2023-02-08T22:12:20.774Z,-0.80
2023-02-08T22:14:49.165Z,-0.80
2023-02-08T22:17:16.383Z,-0.80
2023-02-08T22:19:43.299Z,-0.80
2023-02-08T22:22:15.967Z,-0.80
2023-02-08T22:24:42.649Z,-0.80
2023-02-08T22:27:12.073Z,-0.90
2023-02-08T22:29:40.990Z,-0.90
2023-02-08T22:32:10.963Z,-0.90
2023-02-08T22:34:40.917Z,-1.00
2023-02-08T22:37:10.051Z,-1.10
2023-02-08T22:39:36.981Z,-1.00
2023-02-08T22:42:13.666Z,-1.00
2023-02-08T22:44:42.828Z,-1.10
2023-02-08T22:47:11.291Z,-0.90
2023-02-08T22:49:38.639Z,-1.10
2023-02-08T22:52:09.384Z,-1.10
2023-02-08T22:54:36.104Z,-1.20
2023-02-08T22:57:03.079Z,-1.30
2023-02-08T22:59:29.814Z,-1.30
2023-02-08T23:01:56.548Z,-1.50
2023-02-08T23:04:23.405Z,-1.30
2023-02-08T23:06:53.043Z,-1.30
2023-02-08T23:09:22.494Z,-1.40
2023-02-08T23:11:51.537Z,-1.30
2023-02-08T23:14:18.382Z,-1.40
2023-02-08T23:16:46.617Z,-1.40
2023-02-08T23:19:15.502Z,-1.40
2023-02-08T23:21:45.050Z,-1.40
2023-02-08T23:24:14.432Z,-1.50
2023-02-08T23:26:43.347Z,-1.40
2023-02-08T23:29:10.058Z,-1.50
2023-02-08T23:31:41.791Z,-1.50
2023-02-08T23:34:08.572Z,-1.60
2023-02-08T23:36:37.499Z,-1.60
2023-02-08T23:39:05.636Z,-1.60
2023-02-08T23:41:34.881Z,-1.60
2023-02-08T23:44:04.215Z,-1.70
2023-02-08T23:46:33.194Z,-1.70
2023-02-08T23:48:59.840Z,-1.60
2023-02-08T23:51:26.617Z,-1.70
2023-02-08T23:53:54.246Z,-1.70
2023-02-08T23:56:29.446Z,-1.80
2023-02-08T23:58:58.082Z,-1.80
